createdAt,value
2018-12-12T00:01:53.109Z,20.07
2018-12-12T00:04:21.878Z,20.93
2018-12-12T00:06:51.907Z,19.63
2018-12-12T00:09:20.503Z,21.23
2018-12-12T00:11:49.183Z,21.97
2018-12-12T00:14:18.316Z,21.13
2018-12-12T00:16:46.871Z,21.00
2018-12-12T00:19:16.150Z,20.27
2018-12-12T00:21:44.653Z,20.47
2018-12-12T00:24:13.205Z,19.27
2018-12-12T00:26:43.798Z,22.27
2018-12-12T00:29:13.770Z,20.03
2018-12-12T00:31:42.377Z,22.60
2018-12-12T00:34:11.534Z,20.83
2018-12-12T00:36:40.050Z,21.83
2018-12-12T00:39:09.440Z,21.40
2018-12-12T00:41:39.195Z,21.60
2018-12-12T00:44:07.821Z,23.90
2018-12-12T00:46:36.801Z,22.03
2018-12-12T00:49:05.453Z,22.07
2018-12-12T00:51:36.302Z,24.03
2018-12-12T00:54:04.791Z,23.17
2018-12-12T00:56:33.294Z,22.93
2018-12-12T00:59:02.961Z,22.90
2018-12-12T01:01:31.491Z,22.67
2018-12-12T01:04:00.019Z,24.30
2018-12-12T01:06:29.118Z,21.90
2018-12-12T01:08:57.691Z,21.93
2018-12-12T01:11:31.661Z,21.13
2018-12-12T01:14:00.108Z,22.93
2018-12-12T01:16:28.632Z,23.83
2018-12-12T01:18:57.218Z,22.13
2018-12-12T01:21:25.838Z,21.80
2018-12-12T01:23:54.381Z,21.97
2018-12-12T01:26:22.955Z,23.93
2018-12-12T01:28:51.540Z,22.77
2018-12-12T01:31:20.073Z,22.93
2018-12-12T01:33:49.201Z,22.07
2018-12-12T01:36:17.746Z,23.77
2018-12-12T01:38:46.236Z,23.73
2018-12-12T01:41:14.854Z,23.40
2018-12-12T01:43:43.369Z,23.47
2018-12-12T01:46:11.959Z,22.47
2018-12-12T01:48:41.557Z,23.07
2018-12-12T01:51:10.234Z,21.87
2018-12-12T01:53:39.721Z,22.07
2018-12-12T01:56:08.217Z,23.30
2018-12-12T01:58:37.043Z,22.20
2018-12-12T02:01:05.568Z,22.53
2018-12-12T02:03:34.068Z,21.20
2018-12-12T02:06:02.655Z,22.07
2018-12-12T02:08:31.274Z,24.23
2018-12-12T02:10:59.775Z,21.87
2018-12-12T02:13:35.641Z,22.90
2018-12-12T02:16:05.950Z,22.13
2018-12-12T02:18:35.671Z,24.30
2018-12-12T02:21:05.805Z,23.47
2018-12-12T02:23:34.262Z,25.07
2018-12-12T02:26:03.400Z,22.70
2018-12-12T02:28:31.982Z,22.20
2018-12-12T02:31:00.533Z,23.07
2018-12-12T02:33:29.110Z,22.13
2018-12-12T02:35:57.650Z,21.27
2018-12-12T02:38:26.280Z,23.00
2018-12-12T02:40:55.377Z,21.30
2018-12-12T02:43:23.866Z,22.37
2018-12-12T02:45:52.437Z,22.43
2018-12-12T02:48:20.912Z,22.67
2018-12-12T02:50:49.536Z,21.20
2018-12-12T02:53:18.148Z,21.10
2018-12-12T02:55:47.500Z,20.67
2018-12-12T02:58:16.290Z,19.83
2018-12-12T03:00:45.576Z,23.60
2018-12-12T03:03:14.639Z,21.07
2018-12-12T03:05:43.912Z,19.47
2018-12-12T03:08:12.403Z,20.53
2018-12-12T03:10:40.914Z,19.50
2018-12-12T03:13:09.620Z,20.10
2018-12-12T03:15:38.136Z,19.57
2018-12-12T03:18:06.749Z,18.63
2018-12-12T03:20:35.294Z,18.57
2018-12-12T03:23:04.363Z,19.17
2018-12-12T03:25:32.898Z,17.03
2018-12-12T03:28:01.386Z,18.60
2018-12-12T03:30:30.535Z,18.00
2018-12-12T03:32:59.107Z,19.07
2018-12-12T03:35:28.288Z,17.20
2018-12-12T03:37:56.802Z,18.20
2018-12-12T03:40:25.870Z,18.00
2018-12-12T03:42:55.387Z,18.07
2018-12-12T03:45:23.866Z,17.10
2018-12-12T03:47:52.444Z,18.40
2018-12-12T03:50:20.981Z,18.03
2018-12-12T03:52:49.546Z,17.70
2018-12-12T03:55:18.142Z,18.40
2018-12-12T03:57:47.234Z,15.50
2018-12-12T04:00:16.212Z,17.20
2018-12-12T04:02:44.874Z,16.60
2018-12-12T04:05:13.830Z,16.10
2018-12-12T04:07:42.465Z,16.63
2018-12-12T04:10:11.406Z,20.60
2018-12-12T04:12:40.230Z,19.97
2018-12-12T04:15:09.540Z,19.03
2018-12-12T04:17:38.271Z,18.73
2018-12-12T04:20:07.721Z,19.43
2018-12-12T04:22:36.842Z,15.53
2018-12-12T04:25:06.880Z,17.67
2018-12-12T04:27:35.387Z,16.80
2018-12-12T04:30:04.315Z,17.13
2018-12-12T04:32:32.901Z,16.10
2018-12-12T04:35:01.390Z,13.93
2018-12-12T04:37:30.136Z,15.47
2018-12-12T04:39:59.765Z,14.23
2018-12-12T04:42:28.379Z,15.27
2018-12-12T04:44:56.867Z,13.80
2018-12-12T04:47:25.331Z,14.03
2018-12-12T04:49:54.626Z,14.13
2018-12-12T04:52:23.184Z,14.10
2018-12-12T04:54:51.795Z,13.23
2018-12-12T04:57:20.314Z,14.93
2018-12-12T04:59:48.893Z,15.47
2018-12-12T05:02:21.844Z,14.43
2018-12-12T05:04:50.889Z,14.40
2018-12-12T05:07:19.443Z,13.47
2018-12-12T05:09:48.040Z,14.33
2018-12-12T05:12:16.773Z,13.20
2018-12-12T05:14:45.409Z,14.37
2018-12-12T05:17:13.998Z,12.57
2018-12-12T05:19:43.010Z,13.03
2018-12-12T05:22:11.710Z,14.57
2018-12-12T05:24:41.029Z,12.53
2018-12-12T05:27:09.563Z,12.00
2018-12-12T05:29:38.471Z,12.97
2018-12-12T05:32:06.928Z,12.73
2018-12-12T05:34:35.969Z,12.77
2018-12-12T05:37:04.459Z,11.17
2018-12-12T05:39:33.639Z,14.13
2018-12-12T05:42:02.700Z,11.13
2018-12-12T05:44:31.476Z,13.57
2018-12-12T05:46:59.934Z,12.37
2018-12-12T05:49:28.564Z,12.50
2018-12-12T05:51:57.637Z,13.47
2018-12-12T05:54:28.385Z,14.77
2018-12-12T05:57:01.029Z,13.77
2018-12-12T05:59:31.091Z,13.07
2018-12-12T06:02:00.436Z,14.47
2018-12-12T06:04:30.618Z,14.40
2018-12-12T06:07:00.586Z,14.10
2018-12-12T06:09:29.279Z,12.47
2018-12-12T06:11:57.876Z,13.67
2018-12-12T06:14:26.385Z,13.57
2018-12-12T06:16:55.248Z,13.83
2018-12-12T06:19:24.155Z,13.67
2018-12-12T06:21:53.214Z,14.53
2018-12-12T06:24:21.987Z,13.77
2018-12-12T06:26:50.638Z,12.93
2018-12-12T06:29:19.281Z,12.60
2018-12-12T06:31:48.516Z,12.53
2018-12-12T06:34:17.217Z,11.63
2018-12-12T06:36:45.802Z,13.33
2018-12-12T06:39:16.554Z,14.00
2018-12-12T06:41:45.037Z,11.63
2018-12-12T06:44:14.388Z,12.00
2018-12-12T06:46:43.028Z,14.20
2018-12-12T06:49:12.935Z,12.33
2018-12-12T06:53:05.901Z,11.97
2018-12-12T06:55:34.426Z,13.83
2018-12-12T06:58:03.062Z,14.77
2018-12-12T07:00:31.613Z,14.30
2018-12-12T07:03:01.120Z,14.27
2018-12-12T07:05:30.474Z,16.40
2018-12-12T07:07:59.205Z,14.97
2018-12-12T07:10:27.931Z,12.40
2018-12-12T07:12:56.520Z,13.37
2018-12-12T07:15:25.661Z,13.00
2018-12-12T07:17:54.957Z,12.60
2018-12-12T07:20:23.661Z,13.77
2018-12-12T07:22:52.269Z,14.10
2018-12-12T07:25:22.046Z,12.80
2018-12-12T07:27:50.505Z,13.13
2018-12-12T07:30:19.002Z,12.03
2018-12-12T07:32:47.530Z,11.33
2018-12-12T07:35:16.216Z,10.97
2018-12-12T07:37:45.418Z,9.93
2018-12-12T07:40:14.450Z,9.47
2018-12-12T07:42:43.149Z,9.47
2018-12-12T07:45:11.825Z,9.47
2018-12-12T07:47:40.277Z,10.57
2018-12-12T07:50:08.793Z,10.00
2018-12-12T07:52:37.365Z,9.93
2018-12-12T07:55:07.082Z,9.53
2018-12-12T07:57:36.383Z,10.27
2018-12-12T08:00:05.223Z,9.37
2018-12-12T08:02:34.077Z,10.83
2018-12-12T08:05:02.670Z,11.33
2018-12-12T08:07:31.974Z,10.93
2018-12-12T08:10:00.762Z,10.90
2018-12-12T08:12:29.291Z,10.63
2018-12-12T08:14:58.491Z,10.70
2018-12-12T08:17:27.483Z,9.93
2018-12-12T08:19:56.809Z,10.00
2018-12-12T08:22:25.758Z,9.50
2018-12-12T08:24:55.158Z,10.00
2018-12-12T08:27:24.338Z,9.80
2018-12-12T08:29:52.854Z,10.63
2018-12-12T08:32:21.366Z,9.53
2018-12-12T08:34:51.157Z,9.90
2018-12-12T08:37:19.673Z,10.63
2018-12-12T08:39:48.194Z,10.43
2018-12-12T08:42:16.752Z,9.93
2018-12-12T08:44:45.271Z,9.13
2018-12-12T08:47:14.362Z,10.43
2018-12-12T08:49:42.766Z,9.37
2018-12-12T08:52:12.027Z,9.77
2018-12-12T08:54:40.503Z,10.97
2018-12-12T08:57:09.379Z,12.73
2018-12-12T08:59:37.954Z,11.63
2018-12-12T09:02:08.530Z,11.37
2018-12-12T09:04:38.402Z,10.63
2018-12-12T09:07:07.475Z,10.47
2018-12-12T09:09:36.163Z,10.10
2018-12-12T09:12:04.643Z,10.57
2018-12-12T09:14:33.833Z,10.67
2018-12-12T09:17:02.305Z,10.67
2018-12-12T09:19:30.745Z,9.57
2018-12-12T09:21:59.297Z,12.03
2018-12-12T09:24:28.012Z,10.23
2018-12-12T09:26:56.618Z,11.77
2018-12-12T09:29:25.549Z,11.47
2018-12-12T09:31:54.097Z,9.77
2018-12-12T09:34:22.568Z,11.23
2018-12-12T09:36:51.117Z,11.27
2018-12-12T09:39:19.763Z,10.27
2018-12-12T09:41:48.345Z,11.67
2018-12-12T09:44:17.681Z,11.47
2018-12-12T09:46:46.238Z,11.10
2018-12-12T09:49:15.435Z,11.30
2018-12-12T09:51:44.439Z,11.30
2018-12-12T09:54:12.922Z,11.80
2018-12-12T09:56:41.462Z,13.20
2018-12-12T09:59:10.234Z,11.00
2018-12-12T10:01:38.820Z,11.47
2018-12-12T10:04:07.342Z,11.97
2018-12-12T10:06:35.942Z,12.53
2018-12-12T10:09:07.052Z,10.80
2018-12-12T10:11:35.521Z,11.47
2018-12-12T10:14:04.047Z,12.10
2018-12-12T10:16:32.581Z,11.83
2018-12-12T10:19:01.018Z,11.73
2018-12-12T10:21:30.719Z,12.80
2018-12-12T10:23:59.245Z,14.43
2018-12-12T10:26:27.738Z,12.70
2018-12-12T10:28:57.010Z,13.50
2018-12-12T10:31:25.634Z,12.67
2018-12-12T10:33:54.758Z,10.73
2018-12-12T10:36:24.071Z,10.87
2018-12-12T10:38:53.470Z,10.80
2018-12-12T10:41:22.774Z,11.10
2018-12-12T10:43:51.397Z,10.50
2018-12-12T10:46:19.919Z,10.97
2018-12-12T10:48:48.399Z,11.03
2018-12-12T10:51:16.929Z,11.17
2018-12-12T10:53:45.534Z,11.03
2018-12-12T10:56:13.989Z,11.67
2018-12-12T10:58:43.010Z,11.60
2018-12-12T11:01:17.178Z,11.07
2018-12-12T11:03:46.247Z,11.43
2018-12-12T11:06:16.001Z,24.10
2018-12-12T11:08:44.541Z,14.03
2018-12-12T11:11:13.892Z,11.70
2018-12-12T11:13:43.855Z,12.17
2018-12-12T11:16:12.844Z,13.80
2018-12-12T11:18:42.049Z,12.00
2018-12-12T11:21:10.672Z,12.47
2018-12-12T11:23:40.059Z,12.77
2018-12-12T11:26:08.533Z,12.83
2018-12-12T11:28:37.813Z,12.90
2018-12-12T11:31:06.430Z,12.90
2018-12-12T11:33:35.669Z,13.83
2018-12-12T11:36:04.181Z,12.60
2018-12-12T11:38:34.161Z,13.10
2018-12-12T11:41:04.015Z,13.50
2018-12-12T11:43:33.230Z,13.90
2018-12-12T11:46:01.744Z,14.00
2018-12-12T11:48:31.252Z,14.37
2018-12-12T11:50:59.870Z,14.40
2018-12-12T11:53:29.718Z,13.67
2018-12-12T11:55:58.218Z,13.23
2018-12-12T11:58:27.354Z,12.53
2018-12-12T12:00:55.814Z,11.63
2018-12-12T12:03:24.338Z,14.93
2018-12-12T12:05:52.814Z,11.80
2018-12-12T12:08:21.457Z,12.97
2018-12-12T12:10:50.032Z,11.77
2018-12-12T12:13:18.807Z,12.53
2018-12-12T12:15:47.389Z,13.53
2018-12-12T12:18:16.025Z,11.67
2018-12-12T12:20:44.678Z,12.87
2018-12-12T12:23:14.005Z,12.83
2018-12-12T12:25:43.258Z,12.73
2018-12-12T12:28:11.882Z,12.90
2018-12-12T12:30:40.393Z,12.97
2018-12-12T12:33:08.907Z,13.47
2018-12-12T12:35:37.705Z,12.33
2018-12-12T12:38:06.174Z,12.13
2018-12-12T12:40:34.703Z,13.07
2018-12-12T12:43:03.246Z,12.93
2018-12-12T12:45:31.759Z,13.23
2018-12-12T12:48:00.316Z,12.90
2018-12-12T12:50:28.913Z,13.53
2018-12-12T12:52:57.346Z,14.93
2018-12-12T12:55:25.871Z,13.83
2018-12-12T12:57:54.374Z,13.87
2018-12-12T13:00:22.981Z,14.77
2018-12-12T13:02:51.460Z,14.57
2018-12-12T13:05:20.038Z,13.40
2018-12-12T13:07:48.621Z,12.80
2018-12-12T13:10:17.479Z,13.30
2018-12-12T13:12:46.671Z,13.37
2018-12-12T13:15:15.824Z,12.67
2018-12-12T13:17:44.328Z,14.30
2018-12-12T13:20:12.847Z,12.83
2018-12-12T13:22:43.199Z,12.87
2018-12-12T13:25:11.823Z,13.07
2018-12-12T13:27:40.298Z,11.97
2018-12-12T13:30:09.106Z,13.97
2018-12-12T13:32:37.664Z,14.13
2018-12-12T13:35:07.408Z,13.67
2018-12-12T13:37:37.985Z,13.50
2018-12-12T13:40:07.362Z,14.07
2018-12-12T13:42:35.837Z,15.90
2018-12-12T13:45:04.501Z,14.27
2018-12-12T13:47:32.941Z,14.30
2018-12-12T13:50:01.528Z,13.83
2018-12-12T13:52:30.091Z,14.93
2018-12-12T13:54:58.773Z,14.33
2018-12-12T13:57:27.300Z,14.90
2018-12-12T13:59:56.561Z,14.07
2018-12-12T14:02:25.162Z,13.97
2018-12-12T14:04:53.652Z,14.13
2018-12-12T14:07:22.098Z,14.10
2018-12-12T14:09:50.760Z,14.20
2018-12-12T14:12:19.312Z,15.90
2018-12-12T14:14:47.880Z,13.63
2018-12-12T14:17:16.370Z,13.73
2018-12-12T14:19:44.936Z,14.20
2018-12-12T14:22:13.479Z,13.67
2018-12-12T14:24:41.997Z,13.93
2018-12-12T14:27:10.529Z,15.10
2018-12-12T14:29:38.985Z,13.03
2018-12-12T14:32:08.162Z,15.30
2018-12-12T14:34:36.736Z,15.37
2018-12-12T14:37:05.286Z,13.47
2018-12-12T14:39:33.826Z,14.10
2018-12-12T14:42:02.424Z,14.40
2018-12-12T14:44:30.863Z,13.30
2018-12-12T14:46:59.375Z,13.50
2018-12-12T14:49:27.892Z,14.07
2018-12-12T14:51:56.442Z,15.47
2018-12-12T14:54:24.910Z,15.30
2018-12-12T14:56:54.502Z,14.27
2018-12-12T14:59:23.010Z,13.97
2018-12-12T15:01:51.720Z,13.63
2018-12-12T15:04:20.339Z,16.03
2018-12-12T15:06:48.935Z,14.93
2018-12-12T15:09:17.934Z,15.00
2018-12-12T15:11:46.582Z,15.37
2018-12-12T15:14:15.481Z,15.20
2018-12-12T15:16:44.155Z,16.53
2018-12-12T15:19:12.715Z,15.43
2018-12-12T15:21:41.324Z,16.00
2018-12-12T15:24:09.887Z,15.17
2018-12-12T15:26:38.599Z,15.27
2018-12-12T15:29:07.229Z,15.67
2018-12-12T15:31:35.838Z,14.70
2018-12-12T15:34:05.188Z,15.03
2018-12-12T15:36:33.866Z,15.03
2018-12-12T15:39:02.515Z,16.63
2018-12-12T15:41:31.206Z,14.77
2018-12-12T15:44:01.045Z,15.10
2018-12-12T15:46:30.550Z,14.87
2018-12-12T15:48:59.124Z,14.73
2018-12-12T15:51:27.952Z,14.33
2018-12-12T15:53:56.600Z,13.07
2018-12-12T15:56:25.261Z,14.50
2018-12-12T15:58:53.905Z,14.13
2018-12-12T16:01:22.656Z,13.57
2018-12-12T16:03:51.254Z,14.13
2018-12-12T16:06:19.836Z,13.47
2018-12-12T16:08:48.598Z,13.97
2018-12-12T16:11:23.596Z,15.47
2018-12-12T16:13:53.795Z,14.10
2018-12-12T16:16:22.336Z,14.87
2018-12-12T16:18:50.897Z,19.00
2018-12-12T16:21:19.814Z,15.63
2018-12-12T16:23:48.388Z,13.27
2018-12-12T16:26:16.905Z,10.77
2018-12-12T16:28:45.409Z,10.43
2018-12-12T16:31:14.073Z,8.70
2018-12-12T16:33:43.917Z,9.67
2018-12-12T16:36:13.825Z,9.73
2018-12-12T16:38:42.347Z,11.27
2018-12-12T16:41:10.852Z,12.60
2018-12-12T16:43:39.461Z,11.47
2018-12-12T16:46:08.239Z,11.17
2018-12-12T16:48:36.764Z,12.37
2018-12-12T16:51:05.369Z,12.70
2018-12-12T16:53:34.178Z,12.17
2018-12-12T16:56:02.670Z,12.20
2018-12-12T16:58:31.266Z,12.60
2018-12-12T17:01:02.186Z,13.13
2018-12-12T17:03:30.790Z,12.07
2018-12-12T17:06:11.292Z,11.60
2018-12-12T17:08:40.348Z,10.80
2018-12-12T17:11:09.760Z,10.13
2018-12-12T17:13:38.352Z,9.17
2018-12-12T17:16:06.827Z,8.90
2018-12-12T17:18:35.624Z,9.17
2018-12-12T17:21:04.807Z,8.53
2018-12-12T17:23:33.294Z,9.80
2018-12-12T17:26:02.067Z,11.40
2018-12-12T17:28:30.611Z,13.23
2018-12-12T17:30:59.208Z,11.43
2018-12-12T17:33:27.943Z,7.33
2018-12-12T17:35:56.552Z,7.40
2018-12-12T17:38:25.400Z,7.67
2018-12-12T17:40:54.405Z,12.67
2018-12-12T17:43:23.613Z,10.30
2018-12-12T17:45:52.455Z,8.23
2018-12-12T17:48:22.606Z,7.70
2018-12-12T17:50:51.407Z,8.90
2018-12-12T17:53:20.448Z,7.30
2018-12-12T17:55:49.162Z,8.10
2018-12-12T17:58:17.734Z,8.67
2018-12-12T18:00:46.463Z,7.60
2018-12-12T18:03:18.534Z,8.33
2018-12-12T18:05:48.844Z,8.27
2018-12-12T18:08:18.390Z,9.10
2018-12-12T18:10:47.614Z,8.90
2018-12-12T18:13:17.712Z,9.20
2018-12-12T18:15:47.188Z,7.80
2018-12-12T18:18:15.986Z,8.40
2018-12-12T18:20:44.574Z,8.73
2018-12-12T18:23:17.522Z,9.10
2018-12-12T18:25:46.167Z,8.60
2018-12-12T18:28:18.461Z,8.70
2018-12-12T18:30:59.935Z,8.47
2018-12-12T18:33:28.887Z,8.03
2018-12-12T18:36:12.310Z,8.50
2018-12-12T18:38:41.059Z,7.57
2018-12-12T18:41:09.817Z,7.77
2018-12-12T18:43:44.029Z,8.60
2018-12-12T18:46:19.949Z,8.43
2018-12-12T18:48:48.723Z,8.67
2018-12-12T18:51:17.747Z,8.60
2018-12-12T18:53:46.451Z,8.93
2018-12-12T18:56:15.332Z,9.43
2018-12-12T18:58:44.483Z,9.30
2018-12-12T19:01:13.218Z,12.20
2018-12-12T19:03:41.967Z,14.87
2018-12-12T19:06:10.722Z,10.23
2018-12-12T19:08:39.294Z,8.87
2018-12-12T19:11:07.955Z,10.17
2018-12-12T19:13:37.061Z,9.60
2018-12-12T19:16:05.744Z,58.10
2018-12-12T19:18:34.291Z,11.23
2018-12-12T19:21:03.016Z,10.93
2018-12-12T19:23:31.961Z,16.67
2018-12-12T19:26:00.602Z,26.03
2018-12-12T19:28:29.251Z,26.57
2018-12-12T19:30:58.129Z,19.73
2018-12-12T19:33:26.790Z,14.50
2018-12-12T19:35:55.418Z,13.73
2018-12-12T19:38:23.955Z,12.93
2018-12-12T19:40:52.594Z,13.90
2018-12-12T19:43:21.108Z,12.77
2018-12-12T19:45:49.651Z,12.37
2018-12-12T19:48:18.240Z,12.13
2018-12-12T19:50:46.963Z,12.23
2018-12-12T19:53:15.490Z,11.00
2018-12-12T19:55:44.073Z,9.87
2018-12-12T19:58:12.638Z,9.37
2018-12-12T20:00:41.254Z,9.97
2018-12-12T20:03:09.830Z,9.50
2018-12-12T20:05:41.462Z,11.90
2018-12-12T20:08:09.569Z,11.40
2018-12-12T20:10:40.164Z,12.00
2018-12-12T20:13:08.701Z,10.50
2018-12-12T20:15:46.616Z,8.37
2018-12-12T20:18:15.145Z,8.33
2018-12-12T20:20:49.205Z,8.13
2018-12-12T20:23:17.698Z,7.80
2018-12-12T20:25:46.237Z,7.40
2018-12-12T20:28:14.818Z,7.00
2018-12-12T20:30:43.400Z,6.90
2018-12-12T20:33:12.460Z,6.37
2018-12-12T20:35:40.907Z,6.63
2018-12-12T20:38:12.716Z,7.47
2018-12-12T20:40:41.244Z,8.53
2018-12-12T20:43:09.739Z,8.33
2018-12-12T20:45:38.273Z,7.43
2018-12-12T20:48:06.751Z,7.23
2018-12-12T20:50:35.216Z,8.60
2018-12-12T20:53:03.713Z,8.70
2018-12-12T20:55:32.213Z,9.20
2018-12-12T20:58:00.688Z,8.67
2018-12-12T21:00:29.138Z,7.47
2018-12-12T21:02:57.691Z,9.20
2018-12-12T21:05:26.169Z,10.53
2018-12-12T21:07:55.250Z,7.10
2018-12-12T21:13:55.197Z,5.33
2018-12-12T21:16:23.681Z,5.00
2018-12-12T21:18:52.211Z,5.20
2018-12-12T21:21:20.661Z,5.67
2018-12-12T21:23:49.128Z,5.60
2018-12-12T21:26:18.130Z,5.33
2018-12-12T21:28:46.777Z,5.37
2018-12-12T21:31:15.259Z,5.70
2018-12-12T21:33:43.727Z,8.40
2018-12-12T21:36:12.182Z,5.80
2018-12-12T21:38:40.653Z,5.70
2018-12-12T21:41:10.075Z,5.53
2018-12-12T21:43:39.157Z,6.03
2018-12-12T21:46:07.646Z,5.30
2018-12-12T21:48:36.098Z,5.53
2018-12-12T21:51:04.639Z,6.13
2018-12-12T21:53:33.155Z,5.97
2018-12-12T21:56:01.735Z,6.00
2018-12-12T21:58:30.265Z,5.83
2018-12-12T22:00:58.753Z,6.10
2018-12-12T22:03:27.263Z,6.47
2018-12-12T22:05:56.113Z,5.93
2018-12-12T22:08:24.683Z,5.37
2018-12-12T22:10:53.185Z,5.60
2018-12-12T22:13:22.760Z,6.07
2018-12-12T22:15:51.498Z,6.20
2018-12-12T22:18:20.601Z,5.80
2018-12-12T22:20:50.490Z,5.67
2018-12-12T22:23:19.064Z,5.70
2018-12-12T22:25:48.105Z,6.10
2018-12-12T22:28:16.665Z,6.33
2018-12-12T22:30:45.124Z,6.30
2018-12-12T22:33:13.645Z,5.70
2018-12-12T22:35:42.308Z,5.97
2018-12-12T22:38:10.845Z,5.30
2018-12-12T22:40:39.301Z,4.93
2018-12-12T22:43:07.806Z,4.90
2018-12-12T22:45:36.277Z,5.40
2018-12-12T22:48:04.962Z,4.77
2018-12-12T22:50:33.466Z,4.10
2018-12-12T22:53:01.953Z,4.10
2018-12-12T22:55:31.202Z,5.00
2018-12-12T22:57:59.689Z,4.53
2018-12-12T23:00:33.625Z,4.10
2018-12-12T23:03:02.150Z,4.03
2018-12-12T23:05:30.642Z,4.10
2018-12-12T23:07:59.269Z,4.30
2018-12-12T23:10:27.749Z,4.57
2018-12-12T23:12:56.305Z,4.13
2018-12-12T23:15:25.313Z,4.43
2018-12-12T23:17:53.901Z,4.60
2018-12-12T23:20:22.962Z,4.47
2018-12-12T23:22:51.726Z,5.13
2018-12-12T23:25:20.274Z,4.20
2018-12-12T23:27:48.782Z,4.23
2018-12-12T23:30:17.306Z,4.30
2018-12-12T23:32:45.830Z,4.17
2018-12-12T23:35:14.313Z,4.37
2018-12-12T23:37:42.818Z,3.83
2018-12-12T23:40:11.396Z,4.80
2018-12-12T23:42:39.920Z,4.10
2018-12-12T23:45:08.440Z,4.13
2018-12-12T23:47:37.147Z,4.13
2018-12-12T23:50:05.965Z,4.17
2018-12-12T23:52:34.524Z,4.00
2018-12-12T23:55:03.010Z,3.90
2018-12-12T23:57:33.385Z,4.17
